Time;durP1;ratioP1;P1;durP2;ratioP2;P2;SDS_P1;SDS_P2;PMS_P1;PMS_P2;Temp;Humidity;BMP_temperature;BMP_pressure;BME280_temperature;BME280_humidity;BME280_pressure;Samples;Min_cycle;Max_cycle;Signal;HPM_P1;HPM_P2
2022/10/08 00:01:13;;;;;;;21.00;12.20;;;;;;;6.43;87.58;100662.77;106896;1300;140062;-54
2022/10/08 00:03:44;;;;;;;18.10;11.40;;;;;;;6.39;87.48;100663.55;106995;1285;23010;-54
2022/10/08 00:06:13;;;;;;;19.20;10.70;;;;;;;6.37;87.46;100662.87;106984;1295;22093;-54
2022/10/08 00:08:41;;;;;;;28.10;11.40;;;;;;;6.36;87.72;100660.48;106861;1300;140158;-53
2022/10/08 00:11:10;;;;;;;21.30;9.60;;;;;;;6.37;87.70;100657.95;106974;1300;22156;-55
2022/10/08 00:13:41;;;;;;;17.80;11.20;;;;;;;6.36;87.71;100652.04;106727;1300;138415;-54
2022/10/08 00:16:20;;;;;;;15.70;10.70;;;;;;;6.36;88.07;100650.95;106980;1298;23089;-54
2022/10/08 00:18:47;;;;;;;16.60;9.90;;;;;;;6.36;87.84;100652.00;106993;1294;22781;-55
2022/10/08 00:21:34;;;;;;;15.70;9.30;;;;;;;6.35;87.84;100648.58;106871;1293;138480;-54
2022/10/08 00:24:02;;;;;;;;;;;;;;;6.34;87.92;100644.73;107000;1295;22343;-54
2022/10/08 00:26:30;;;;;;;19.20;8.70;;;;;;;6.34;87.82;100648.27;106883;1292;125424;-56
2022/10/08 00:28:58;;;;;;;21.00;9.70;;;;;;;6.32;87.93;100639.60;106845;1294;22931;-56
2022/10/08 00:31:27;;;;;;;14.80;9.30;;;;;;;6.31;87.76;100634.18;106889;1292;139656;-56
2022/10/08 00:33:55;;;;;;;17.20;9.40;;;;;;;6.31;87.86;100634.77;107026;1299;22136;-56
2022/10/08 00:36:23;;;;;;;17.50;9.10;;;;;;;6.30;87.92;100631.23;106981;1300;22928;-56
2022/10/08 00:39:11;;;;;;;13.80;8.40;;;;;;;6.30;87.98;100631.77;106889;1292;141148;-56
2022/10/08 00:41:38;;;;;;;15.40;8.30;;;;;;;6.29;87.83;100625.46;102741;1307;24397;-54
2022/10/08 00:44:43;;;;;;;16.10;9.10;;;;;;;6.27;87.94;100617.88;102305;1295;138164;-54
2022/10/08 00:47:18;;;;;;;19.70;9.10;;;;;;;6.26;87.90;100612.75;106542;1292;23141;-54
2022/10/08 00:49:48;;;;;;;13.10;8.00;;;;;;;6.25;88.09;100606.42;106691;1302;138709;-55
2022/10/08 00:52:14;;;;;;;20.10;9.30;;;;;;;6.24;87.89;100605.12;106738;1303;22121;-54
2022/10/08 00:54:42;;;;;;;13.80;7.60;;;;;;;6.23;87.84;100600.82;106746;1302;22181;-54
2022/10/08 00:57:09;;;;;;;17.90;8.70;;;;;;;6.20;87.96;100598.63;106839;1300;138021;-54
2022/10/08 00:59:36;;;;;;;14.20;8.10;;;;;;;6.19;87.75;100598.13;106801;1300;22108;-54
2022/10/08 01:02:03;;;;;;;13.70;8.10;;;;;;;6.17;87.76;100595.79;106708;1302;139016;-54
2022/10/08 01:04:30;;;;;;;13.70;8.20;;;;;;;6.17;87.91;100598.33;106919;1300;22096;-55
2022/10/08 01:07:17;;;;;;;16.10;9.10;;;;;;;6.17;87.85;100596.41;106891;1302;22222;-54
2022/10/08 01:10:06;;;;;;;14.80;8.40;;;;;;;6.17;88.01;100599.29;106945;1300;22179;-55
2022/10/08 01:12:40;;;;;;;15.30;8.40;;;;;;;6.16;87.99;100592.36;106818;1300;22175;-55
2022/10/08 01:15:08;;;;;;;14.00;8.60;;;;;;;6.16;88.21;100596.70;106675;1291;139021;-54
2022/10/08 01:17:41;;;;;;;16.00;8.60;;;;;;;6.15;87.76;100597.70;106870;1294;23195;-55
2022/10/08 01:20:20;;;;;;;17.30;8.70;;;;;;;6.14;88.04;100593.73;106713;1300;139293;-55
2022/10/08 01:23:13;;;;;;;16.30;9.30;;;;;;;6.14;87.94;100593.23;106972;1300;22979;-55
2022/10/08 01:25:45;;;;;;;15.00;7.70;;;;;;;6.12;87.88;100592.52;106708;1287;139665;-55
2022/10/08 01:28:21;;;;;;;15.10;8.30;;;;;;;6.11;87.73;100594.84;106990;1299;22157;-55
2022/10/08 01:30:59;;;;;;;17.10;8.80;;;;;;;6.09;88.06;100590.75;106769;1300;22978;-55
2022/10/08 01:33:32;;;;;;;15.80;7.60;;;;;;;6.09;88.01;100589.83;106655;1300;138318;-56
2022/10/08 01:35:59;;;;;;;13.70;8.00;;;;;;;6.09;88.04;100591.88;106817;1300;22393;-55
2022/10/08 01:38:27;;;;;;;11.90;8.60;;;;;;;6.06;87.99;100590.02;106687;1293;138543;-55
2022/10/08 01:40:57;;;;;;;13.10;8.10;;;;;;;6.07;88.08;100590.15;106777;1301;22097;-56
2022/10/08 01:43:27;;;;;;;18.60;7.80;;;;;;;6.07;87.84;100587.20;106705;1300;139390;-55
2022/10/08 01:45:57;;;;;;;17.40;8.40;;;;;;;6.07;87.92;100587.98;106750;1302;23023;-55
2022/10/08 01:48:28;;;;;;;17.90;8.10;;;;;;;6.04;87.96;100583.98;106972;1300;22179;-54
2022/10/08 01:51:17;;;;;;;25.40;8.20;;;;;;;6.06;88.27;100589.75;105950;1294;1025651;-54
2022/10/08 01:55:15;;;;;;;15.50;7.70;;;;;;;6.08;88.17;100591.80;99674;1335;545544;-54
2022/10/08 01:57:41;;;;;;;14.60;8.10;;;;;;;6.06;88.19;100598.57;105648;1316;22523;-54
2022/10/08 02:00:10;;;;;;;12.20;6.90;;;;;;;6.05;88.08;100596.88;105745;1315;22164;-55
2022/10/08 02:02:39;;;;;;;11.70;6.30;;;;;;;6.05;87.95;100592.45;105600;1315;139617;-54
2022/10/08 02:05:06;;;;;;;16.10;7.40;;;;;;;6.05;87.93;100594.79;105657;1315;22170;-56
2022/10/08 02:07:38;;;;;;;10.50;6.60;;;;;;;6.02;87.96;100591.11;105632;1315;139033;-56
2022/10/08 02:10:06;;;;;;;13.20;6.70;;;;;;;6.02;87.90;100594.77;105292;1313;22107;-56
2022/10/08 02:12:33;;;;;;;14.80;7.20;;;;;;;6.00;88.00;100593.59;105944;1304;22268;-56
2022/10/08 02:14:59;;;;;;;;;;;;;;;5.99;87.86;100594.96;106483;1298;137891;-56
2022/10/08 02:17:41;;;;;;;10.60;6.30;;;;;;;5.98;87.92;100596.38;106721;1294;22251;-56
2022/10/08 02:20:15;;;;;;;13.10;6.70;;;;;;;5.94;87.84;100591.77;106446;1306;137964;-56
2022/10/08 02:22:48;;;;;;;15.30;6.30;;;;;;;5.92;88.01;100589.34;106560;1306;22891;-56
2022/10/08 02:25:21;;;;;;;10.80;6.00;;;;;;;5.92;88.08;100593.40;106427;1291;138417;-56
2022/10/08 02:28:08;;;;;;;9.70;7.00;;;;;;;5.91;88.03;100592.20;106662;1304;23329;-55
2022/10/08 02:31:13;;;;;;;9.40;5.40;;;;;;;5.91;87.97;100592.81;106596;1304;22141;-55
2022/10/08 02:33:43;;;;;;;13.20;6.80;;;;;;;5.90;87.90;100596.65;106122;1312;23243;-55
2022/10/08 02:36:10;;;;;;;16.00;4.90;;;;;;;5.90;88.04;100589.35;105958;1309;22209;-55
2022/10/08 02:38:46;;;;;;;9.20;4.90;;;;;;;5.88;88.12;100590.05;105923;1312;138860;-55
2022/10/08 02:41:12;;;;;;;7.70;5.10;;;;;;;5.89;88.31;100589.98;106006;1312;23431;-59
2022/10/08 02:43:42;;;;;;;11.90;5.30;;;;;;;5.89;88.39;100591.77;106041;1304;140037;-59
2022/10/08 02:46:20;;;;;;;6.30;4.40;;;;;;;5.89;88.34;100593.05;106078;1309;22151;-59
2022/10/08 02:48:51;;;;;;;9.20;4.90;;;;;;;5.91;88.42;100594.81;106011;1312;22905;-60
2022/10/08 02:51:17;;;;;;;9.00;4.80;;;;;;;5.91;88.82;100593.14;105849;1309;138056;-60
2022/10/08 02:53:44;;;;;;;10.40;4.80;;;;;;;5.93;88.86;100590.85;106144;1310;23330;-60
2022/10/08 02:56:19;;;;;;;10.10;4.60;;;;;;;5.97;89.21;100587.75;106122;1309;138390;-59
2022/10/08 02:58:46;;;;;;;12.80;5.50;;;;;;;6.02;89.45;100588.04;106088;1309;23042;-59
2022/10/08 03:01:32;;;;;;;12.10;4.90;;;;;;;6.08;89.99;100586.17;106012;1310;138461;-59
2022/10/08 03:04:03;;;;;;;8.90;4.30;;;;;;;6.19;90.74;100584.58;106052;1309;22679;-59
2022/10/08 03:06:30;;;;;;;11.80;4.40;;;;;;;6.28;91.26;100581.34;105982;1309;22230;-59
2022/10/08 03:08:58;;;;;;;7.10;3.90;;;;;;;6.40;91.85;100585.64;105856;1313;139839;-59
2022/10/08 03:11:25;;;;;;;9.80;4.50;;;;;;;6.50;92.19;100583.95;106495;1306;22138;-59
2022/10/08 03:13:56;;;;;;;11.10;3.90;;;;;;;6.60;92.33;100584.64;106401;1306;138917;-59
2022/10/08 03:16:25;;;;;;;11.90;4.60;;;;;;;6.71;92.86;100583.48;106508;1309;22181;-59
2022/10/08 03:18:52;;;;;;;9.00;3.70;;;;;;;6.85;93.36;100586.00;106430;1306;22112;-59
2022/10/08 03:21:19;;;;;;;;;;;;;;;6.96;93.68;100577.04;106401;1306;137952;-59
2022/10/08 03:23:46;;;;;;;8.10;4.10;;;;;;;7.06;93.73;100576.49;106664;1306;22089;-59
2022/10/08 03:26:16;;;;;;;7.40;3.80;;;;;;;7.15;93.66;100577.69;106437;1306;138994;-59
2022/10/08 03:28:42;;;;;;;7.90;4.00;;;;;;;7.22;93.70;100579.94;106519;1306;22151;-59
2022/10/08 03:31:09;;;;;;;9.40;3.40;;;;;;;7.31;93.88;100579.27;106533;1305;138193;-59
2022/10/08 03:33:36;;;;;;;;;;;;;;;7.40;93.96;100575.65;106555;1306;22341;-59
2022/10/08 03:36:03;;;;;;;8.20;3.50;;;;;;;7.48;93.78;100577.12;106567;1306;22833;-59
2022/10/08 03:38:32;;;;;;;9.70;3.80;;;;;;;7.52;93.45;100574.83;106456;1306;137601;-59
2022/10/08 03:40:58;;;;;;;9.90;3.50;;;;;;;7.55;93.09;100575.37;106514;1309;22162;-59
2022/10/08 03:43:32;;;;;;;6.00;2.80;;;;;;;7.57;92.66;100573.29;106807;1303;138395;-59
2022/10/08 03:45:58;;;;;;;8.30;3.20;;;;;;;7.57;92.18;100571.66;106840;1303;23081;-59
2022/10/08 03:48:25;;;;;;;;;;;;;;;7.55;91.76;100572.29;106839;1303;22400;-60
2022/10/08 03:51:00;;;;;;;10.60;2.90;;;;;;;7.53;91.48;100571.66;106797;1301;124269;-59
2022/10/08 03:53:27;;;;;;;8.50;3.20;;;;;;;7.52;91.24;100569.48;106899;1303;22826;-59
2022/10/08 03:55:54;;;;;;;15.20;3.80;;;;;;;7.52;91.45;100570.95;106806;1298;137614;-59
2022/10/08 03:58:20;;;;;;;5.60;3.20;;;;;;;7.52;91.15;100571.88;106830;1303;22125;-59
2022/10/08 04:00:57;;;;;;;;;;;;;;;7.51;91.07;100575.38;106833;1285;22827;-59
2022/10/08 04:03:24;;;;;;;10.70;3.40;;;;;;;7.50;90.95;100570.45;106744;1303;125168;-60
2022/10/08 04:05:51;;;;;;;8.40;3.40;;;;;;;7.51;91.07;100572.72;106810;1293;22244;-58
2022/10/08 04:08:18;;;;;;;6.40;3.20;;;;;;;7.51;90.60;100575.46;106759;1303;138761;-59
2022/10/08 04:10:44;;;;;;;9.00;3.90;;;;;;;7.48;90.41;100573.78;106805;1303;23059;-59
2022/10/08 04:13:11;;;;;;;12.20;4.00;;;;;;;7.43;90.12;100568.45;106808;1303;138163;-59
2022/10/08 04:15:38;;;;;;;7.40;4.70;;;;;;;7.42;90.05;100569.73;106940;1303;22143;-59
2022/10/08 04:18:06;;;;;;;14.10;4.80;;;;;;;7.39;89.94;100571.23;106824;1303;22167;-59
2022/10/08 04:20:32;;;;;;;9.20;5.20;;;;;;;7.36;89.64;100573.99;106704;1302;138382;-58
2022/10/08 04:22:59;;;;;;;11.50;5.00;;;;;;;7.33;89.41;100576.94;106894;1303;22931;-59
2022/10/08 04:25:26;;;;;;;11.90;5.30;;;;;;;7.29;89.38;100578.02;106754;1303;139342;-59
2022/10/08 04:27:53;;;;;;;11.80;5.10;;;;;;;7.25;89.13;100579.60;106781;1303;22179;-58
2022/10/08 04:30:19;;;;;;;11.10;4.90;;;;;;;7.22;88.96;100580.02;106866;1303;22976;-59
2022/10/08 04:32:46;;;;;;;9.60;4.80;;;;;;;7.20;88.87;100582.25;106719;1303;139176;-59
2022/10/08 04:35:13;;;;;;;10.50;4.80;;;;;;;7.15;88.88;100577.41;106810;1303;22226;-59
2022/10/08 04:37:40;;;;;;;;;;;;;;;7.12;88.68;100576.11;106723;1303;138248;-59
2022/10/08 04:40:07;;;;;;;8.50;4.40;;;;;;;7.08;88.73;100576.02;106873;1302;22112;-47
2022/10/08 04:42:34;;;;;;;18.30;10.80;;;;;;;7.06;88.80;100577.63;106910;1303;22957;-47
2022/10/08 04:45:01;;;;;;;13.70;6.30;;;;;;;7.04;88.80;100579.17;106784;1302;138967;-48
2022/10/08 04:47:27;;;;;;;9.30;5.20;;;;;;;7.03;88.96;100577.13;106815;1303;22133;-48
2022/10/08 04:49:54;;;;;;;8.80;4.80;;;;;;;7.03;89.12;100579.05;106817;1301;137920;-48
2022/10/08 04:52:21;;;;;;;;;;;;;;;7.03;89.18;100578.71;106856;1303;22504;-48
2022/10/08 04:54:47;;;;;;;11.70;4.50;;;;;;;7.06;89.50;100581.09;106827;1303;22094;-48
2022/10/08 04:57:14;;;;;;;7.40;4.50;;;;;;;7.10;90.10;100581.57;106692;1302;138332;-48
2022/10/08 04:59:41;;;;;;;13.00;5.00;;;;;;;7.15;90.68;100577.28;106893;1303;22125;-48
2022/10/08 05:02:27;;;;;;;13.20;4.60;;;;;;;7.24;91.33;100579.65;106718;1289;138381;-49
2022/10/08 05:04:54;;;;;;;;;;;;;;;7.34;92.05;100582.05;106820;1298;23495;-49
2022/10/08 05:07:21;;;;;;;10.20;5.90;;;;;;;7.45;92.69;100578.48;106819;1303;126084;-49
2022/10/08 05:09:48;;;;;;;;;;;;;;;7.57;93.04;100582.23;106911;1303;22431;-49
2022/10/08 05:12:14;;;;;;;11.80;4.40;;;;;;;7.71;93.46;100579.46;106786;1303;22333;-49
2022/10/08 05:14:41;;;;;;;;;;;;;;;7.83;93.73;100576.88;106806;1303;138372;-49
2022/10/08 05:17:08;;;;;;;7.60;4.00;;;;;;;7.95;94.00;100578.33;106788;1278;22140;-49
2022/10/08 05:19:34;;;;;;;6.50;3.70;;;;;;;8.08;94.10;100576.73;106689;1302;138445;-49
2022/10/08 05:22:01;;;;;;;10.50;3.90;;;;;;;8.19;94.09;100576.92;106832;1303;23549;-49
2022/10/08 05:24:28;;;;;;;8.90;4.40;;;;;;;8.31;93.99;100570.95;106828;1303;22144;-49
2022/10/08 05:26:54;;;;;;;11.70;4.30;;;;;;;8.42;93.91;100573.73;106721;1303;138551;-49
2022/10/08 05:29:24;;;;;;;10.20;4.30;;;;;;;8.53;93.82;100575.71;106837;1303;22961;-47
2022/10/08 05:31:51;;;;;;;9.60;4.00;;;;;;;8.64;93.76;100571.84;106713;1303;139230;-46
2022/10/08 05:34:18;;;;;;;12.00;3.40;;;;;;;8.74;93.70;100566.97;106833;1303;22122;-46
2022/10/08 05:36:45;;;;;;;;;;;;;;;8.85;93.70;100568.97;106874;1303;22371;-46
2022/10/08 05:39:12;;;;;;;14.00;4.10;;;;;;;8.95;93.58;100568.01;106715;1303;125015;-47
2022/10/08 05:41:38;;;;;;;;;;;;;;;9.06;93.34;100565.96;106958;1303;22382;-49
2022/10/08 05:44:05;;;;;;;10.50;3.50;;;;;;;9.15;93.16;100564.20;106679;1303;124041;-49
2022/10/08 05:46:33;;;;;;;16.00;4.30;;;;;;;9.25;92.97;100566.36;106798;1299;22212;-49
2022/10/08 05:49:00;;;;;;;15.10;4.30;;;;;;;9.35;92.63;100567.65;106924;1303;22280;-49
2022/10/08 05:51:27;;;;;;;14.40;4.60;;;;;;;9.45;92.40;100569.05;106787;1293;138984;-49
2022/10/08 05:53:54;;;;;;;;;;;;;;;9.56;92.05;100564.75;106834;1285;23190;-49
2022/10/08 05:56:22;;;;;;;10.20;3.80;;;;;;;9.67;91.90;100567.14;106715;1298;124155;-49
2022/10/08 05:58:48;;;;;;;13.90;3.60;;;;;;;9.77;91.40;100566.61;106912;1303;22135;-47
2022/10/08 06:01:19;;;;;;;11.00;4.80;;;;;;;9.87;90.95;100566.99;106698;1306;139027;-44
2022/10/08 06:03:52;;;;;;;60.60;33.90;;;;;;;9.96;90.51;100566.71;106835;1301;22150;-47
2022/10/08 06:06:19;;;;;;;14.20;5.80;;;;;;;10.06;90.27;100562.83;106859;1302;22162;-47
2022/10/08 06:08:46;;;;;;;11.10;3.90;;;;;;;10.16;89.89;100562.77;106776;1303;138457;-46
2022/10/08 06:11:13;;;;;;;;;;;;;;;10.26;89.49;100559.27;106797;1303;22405;-47
2022/10/08 06:13:39;;;;;;;10.10;4.80;;;;;;;10.37;89.11;100559.05;106700;1301;124745;-47
2022/10/08 06:16:07;;;;;;;;;;;;;;;10.47;88.72;100554.96;106836;1303;22481;-47
2022/10/08 06:18:35;;;;;;;11.30;3.90;;;;;;;10.57;88.32;100551.81;106804;1303;22179;-47
2022/10/08 06:21:03;;;;;;;12.20;3.90;;;;;;;10.68;87.94;100549.68;106722;1306;139992;-47
2022/10/08 06:23:30;;;;;;;14.20;3.00;;;;;;;10.78;87.46;100547.32;106803;1306;22138;-47
2022/10/08 06:25:59;;;;;;;;;;;;;;;10.86;87.22;100546.16;106711;1302;138749;-47
2022/10/08 06:28:26;;;;;;;8.30;2.80;;;;;;;10.94;86.72;100544.19;106955;1306;22141;-47
2022/10/08 06:30:53;;;;;;;;;;;;;;;11.03;86.28;100537.04;106813;1303;22353;-47
2022/10/08 06:33:19;;;;;;;7.90;2.90;;;;;;;11.11;86.08;100540.13;106704;1303;124654;-47
2022/10/08 06:35:46;;;;;;;;;;;;;;;11.18;85.56;100541.01;106794;1308;22357;-48
2022/10/08 06:38:13;;;;;;;5.60;2.60;;;;;;;11.25;85.01;100540.33;106746;1305;124622;-48
2022/10/08 06:40:39;;;;;;;14.40;4.20;;;;;;;11.31;84.67;100541.79;103999;1303;24448;-47
2022/10/08 06:43:08;;;;;;;;;;;;;;;11.40;84.28;100539.76;102586;1292;138974;-47
2022/10/08 06:45:38;;;;;;;158.70;99.60;;;;;;;11.45;84.06;100534.96;102506;1310;25362;-45
2022/10/08 06:48:05;;;;;;;28.60;12.70;;;;;;;11.54;83.81;100540.95;106929;1306;22155;-47
2022/10/08 06:50:32;;;;;;;;;;;;;;;11.62;83.31;100538.55;106695;1302;140291;-47
2022/10/08 06:52:59;;;;;;;13.20;6.10;;;;;;;11.68;82.99;100537.65;106815;1306;22277;-47
2022/10/08 06:55:25;;;;;;;;;;;;;;;11.79;82.55;100542.52;106726;1303;138302;-47
2022/10/08 06:57:52;;;;;;;12.00;4.20;;;;;;;11.89;82.15;100539.70;106911;1301;22898;-48
2022/10/08 07:00:19;;;;;;;;;;;;;;;11.98;82.09;100537.21;106942;1298;22400;-48
2022/10/08 07:02:45;;;;;;;8.80;3.90;;;;;;;12.06;81.71;100534.98;106845;1302;124587;-46
2022/10/08 07:05:13;;;;;;;159.40;96.80;;;;;;;12.14;81.31;100534.35;106825;1301;22909;-47
2022/10/08 07:07:39;;;;;;;22.50;9.40;;;;;;;12.20;80.89;100533.11;106710;1300;140705;-47
2022/10/08 07:10:06;;;;;;;;;;;;;;;12.28;80.39;100533.10;106931;1306;22375;-49
2022/10/08 07:12:33;;;;;;;10.10;4.30;;;;;;;12.38;79.83;100533.30;106934;1305;22098;-48
2022/10/08 07:14:59;;;;;;;;;;;;;;;12.47;79.40;100530.19;106753;1303;139214;-48
2022/10/08 07:17:27;;;;;;;10.10;3.50;;;;;;;12.55;79.18;100526.33;106783;1306;22216;-48
2022/10/08 07:19:55;;;;;;;7.40;3.20;;;;;;;12.64;78.90;100521.46;106850;1300;139391;-48
2022/10/08 07:22:22;;;;;;;8.50;3.10;;;;;;;12.72;78.31;100521.15;106836;1302;23030;-48
2022/10/08 07:24:49;;;;;;;12.60;4.00;;;;;;;12.79;77.91;100517.98;106826;1303;22887;-48
2022/10/08 07:27:17;;;;;;;9.20;2.90;;;;;;;12.86;77.62;100518.00;106823;1300;139656;-49
2022/10/08 07:29:43;;;;;;;6.70;2.70;;;;;;;12.95;76.83;100514.86;106787;1303;22989;-49
2022/10/08 07:32:10;;;;;;;8.60;2.80;;;;;;;13.02;76.51;100506.83;106719;1301;139900;-50
2022/10/08 07:34:37;;;;;;;10.50;2.80;;;;;;;13.09;76.25;100507.92;106808;1303;22216;-50
2022/10/08 07:37:03;;;;;;;;;;;;;;;13.17;75.94;100505.05;106792;1302;22360;-50
2022/10/08 07:39:30;;;;;;;9.30;2.60;;;;;;;13.24;75.43;100505.77;106826;1303;22147;-49
2022/10/08 07:41:57;;;;;;;11.90;3.10;;;;;;;13.31;74.86;100504.45;106951;1303;22989;-49
2022/10/08 07:44:23;;;;;;;6.40;2.70;;;;;;;13.39;74.61;100502.81;106827;1300;139879;-49
2022/10/08 07:46:52;;;;;;;6.80;3.00;;;;;;;13.44;74.37;100499.41;106839;1303;23020;-49
2022/10/08 07:49:19;;;;;;;8.10;2.80;;;;;;;13.50;74.12;100498.13;106846;1303;139134;-48
2022/10/08 07:51:46;;;;;;;8.40;2.90;;;;;;;13.52;73.47;100491.59;106844;1303;22199;-48
2022/10/08 07:54:15;;;;;;;7.80;3.00;;;;;;;13.59;73.04;100494.30;106830;1303;22243;-49
2022/10/08 07:56:41;;;;;;;7.20;2.70;;;;;;;13.62;72.65;100495.89;106857;1303;138218;-50
2022/10/08 07:59:08;;;;;;;;;;;;;;;13.67;72.26;100490.15;106939;1303;23018;-49
2022/10/08 08:01:35;;;;;;;7.80;3.00;;;;;;;13.72;72.09;100486.80;106718;1303;125848;-50
2022/10/08 08:04:04;;;;;;;8.20;3.40;;;;;;;13.75;72.13;100484.77;106943;1303;22151;-50
2022/10/08 08:06:31;;;;;;;6.50;2.80;;;;;;;13.78;71.59;100481.84;106823;1300;22153;-50
2022/10/08 08:08:59;;;;;;;8.40;3.10;;;;;;;13.82;71.69;100480.75;106735;1303;139582;-49
2022/10/08 08:11:25;;;;;;;36.30;22.60;;;;;;;13.86;71.66;100475.14;106803;1302;22230;-44
2022/10/08 08:13:52;;;;;;;17.30;8.10;;;;;;;13.91;71.85;100470.65;106712;1302;139145;-48
2022/10/08 08:16:26;;;;;;;10.30;3.40;;;;;;;13.96;71.64;100474.01;106850;1295;22123;-48
2022/10/08 08:18:57;;;;;;;6.30;2.80;;;;;;;14.02;70.71;100470.16;106793;1303;22111;-47
2022/10/08 08:21:26;;;;;;;6.20;2.40;;;;;;;14.09;70.69;100469.55;106758;1303;137236;-48
2022/10/08 08:23:54;;;;;;;9.70;3.80;;;;;;;14.15;70.34;100462.80;106967;1303;22262;-48
2022/10/08 08:26:25;;;;;;;7.20;2.40;;;;;;;14.22;69.93;100462.39;106711;1286;139211;-48
2022/10/08 08:28:57;;;;;;;154.50;93.30;;;;;;;14.28;69.22;100466.00;106800;1303;22137;-45
2022/10/08 08:31:28;;;;;;;70.10;37.70;;;;;;;14.33;69.04;100460.17;106837;1302;138426;-45
2022/10/08 08:33:57;;;;;;;14.00;6.80;;;;;;;14.37;68.64;100461.60;106815;1303;22241;-47
2022/10/08 08:36:28;;;;;;;12.20;3.70;;;;;;;14.40;68.50;100460.90;106846;1302;22135;-48
2022/10/08 08:38:55;;;;;;;4.60;2.60;;;;;;;14.45;68.11;100457.20;106705;1302;137602;-48
2022/10/08 08:41:37;;;;;;;5.50;2.40;;;;;;;14.49;67.58;100458.38;106918;1303;22823;-48
2022/10/08 08:44:17;;;;;;;6.80;3.10;;;;;;;14.50;67.49;100453.80;106854;1301;137814;-48
2022/10/08 08:46:55;;;;;;;4.90;2.90;;;;;;;14.54;67.29;100454.23;106930;1302;22228;-48
2022/10/08 08:49:46;;;;;;;5.40;2.80;;;;;;;14.56;67.26;100452.42;106701;1303;138166;-48
2022/10/08 08:52:14;;;;;;;8.60;2.70;;;;;;;14.57;66.89;100446.94;106826;1303;22142;-49
2022/10/08 08:54:44;;;;;;;6.90;2.50;;;;;;;14.57;66.83;100446.77;106762;1302;22312;-49
2022/10/08 08:57:49;;;;;;;5.50;2.60;;;;;;;14.59;66.81;100437.89;106700;1302;138612;-47
2022/10/08 09:00:18;;;;;;;5.40;2.80;;;;;;;14.65;66.66;100435.59;106804;1301;22117;-47
2022/10/08 09:03:23;;;;;;;10.40;3.70;;;;;;;14.69;66.10;100429.27;106711;1303;140609;-47
2022/10/08 09:05:52;;;;;;;4.20;2.30;;;;;;;14.75;65.93;100425.95;106367;1309;22210;-49
2022/10/08 09:08:28;;;;;;;5.40;2.50;;;;;;;14.78;66.08;100425.16;106172;1294;139902;-48
2022/10/08 09:11:00;;;;;;;6.50;2.00;;;;;;;14.81;65.91;100420.09;106170;1309;23385;-49
2022/10/08 09:13:47;;;;;;;4.50;2.00;;;;;;;14.85;65.77;100421.20;106212;1294;139396;-49
2022/10/08 09:16:14;;;;;;;8.30;2.60;;;;;;;14.89;65.55;100420.61;106071;1306;22147;-49
2022/10/08 09:18:45;;;;;;;8.10;2.10;;;;;;;14.89;65.10;100412.88;106358;1302;22153;-49
2022/10/08 09:21:12;;;;;;;5.70;2.40;;;;;;;14.92;64.89;100412.23;106228;1294;138077;-49
2022/10/08 09:23:39;;;;;;;7.30;2.70;;;;;;;14.93;64.22;100405.39;106458;1307;22883;-49
2022/10/08 09:26:29;;;;;;;9.00;2.40;;;;;;;14.97;63.55;100402.58;106212;1308;137799;-51
2022/10/08 09:28:59;;;;;;;161.60;103.40;;;;;;;14.99;63.63;100393.27;106365;1309;22286;-46
2022/10/08 09:31:35;;;;;;;36.10;23.70;;;;;;;15.03;63.54;100394.95;106240;1308;138943;-47
2022/10/08 09:34:09;;;;;;;205.80;124.90;;;;;;;15.06;63.36;100395.05;106374;1295;22192;-48
2022/10/08 09:36:40;;;;;;;9.70;7.10;;;;;;;15.10;63.37;100391.12;106181;1299;22203;-48
2022/10/08 09:39:34;;;;;;;7.10;4.00;;;;;;;15.12;62.17;100388.05;105965;1310;137487;-52
2022/10/08 09:42:08;;;;;;;6.40;2.80;;;;;;;15.16;60.85;100381.20;106460;1302;22147;-48
2022/10/08 09:44:45;;;;;;;3.30;2.10;;;;;;;15.24;60.11;100382.40;106849;1295;138538;-46
2022/10/08 09:47:16;;;;;;;9.70;2.60;;;;;;;15.30;59.88;100380.77;106822;1303;22975;-46
2022/10/08 09:49:43;;;;;;;5.40;2.20;;;;;;;15.35;59.52;100380.30;106816;1295;139540;-46
2022/10/08 09:52:25;;;;;;;4.50;2.20;;;;;;;15.39;59.63;100377.80;106862;1301;22909;-46
2022/10/08 09:54:54;;;;;;;6.30;2.00;;;;;;;15.41;59.28;100369.90;106895;1295;22110;-46
2022/10/08 09:57:20;;;;;;;7.30;1.70;;;;;;;15.44;59.27;100369.67;106766;1303;137270;-46
2022/10/08 09:59:53;;;;;;;5.80;2.30;;;;;;;15.48;59.06;100363.76;106756;1303;22152;-46
2022/10/08 10:02:34;;;;;;;10.10;2.60;;;;;;;15.52;59.03;100364.98;106648;1303;139058;-46
2022/10/08 10:05:05;;;;;;;3.70;1.90;;;;;;;15.55;58.88;100360.14;106823;1303;22365;-46
2022/10/08 10:07:50;;;;;;;5.70;2.70;;;;;;;15.59;58.36;100357.50;106637;1303;137527;-46
2022/10/08 10:10:27;;;;;;;4.20;2.30;;;;;;;15.63;57.95;100353.13;106818;1303;22955;-46
2022/10/08 10:13:01;;;;;;;;;;;;;;;15.68;57.96;100353.41;106776;1294;23354;-46
2022/10/08 10:15:34;;;;;;;3.90;2.30;;;;;;;15.73;57.33;100349.46;106711;1302;125081;-46
2022/10/08 10:18:03;;;;;;;5.80;2.20;;;;;;;15.75;57.38;100341.71;106832;1303;22376;-47
2022/10/08 10:20:49;;;;;;;10.20;2.50;;;;;;;15.76;57.56;100332.81;106633;1303;138051;-46
2022/10/08 10:23:45;;;;;;;6.60;2.30;;;;;;;15.75;57.87;100328.19;106784;1301;22009;-47
2022/10/08 10:26:29;;;;;;;6.70;2.90;;;;;;;15.74;58.05;100321.05;106792;1300;137624;-46
2022/10/08 10:29:07;;;;;;;4.90;2.80;;;;;;;15.76;58.42;100320.73;106755;1302;22900;-46
2022/10/08 10:31:37;;;;;;;108.00;73.20;;;;;;;15.78;57.96;100311.66;106649;1294;140672;-46
2022/10/08 10:34:19;;;;;;;46.00;29.70;;;;;;;15.81;57.48;100311.56;106787;1300;22125;-47
2022/10/08 10:37:00;;;;;;;15.80;5.90;;;;;;;15.85;57.21;100306.41;106738;1302;22156;-46
2022/10/08 10:39:45;;;;;;;4.50;2.90;;;;;;;15.88;57.10;100303.09;106517;1303;138717;-46
2022/10/08 10:42:23;;;;;;;6.50;2.40;;;;;;;15.91;56.40;100300.95;106931;1303;23448;-46
2022/10/08 10:44:53;;;;;;;4.00;2.20;;;;;;;15.97;55.59;100294.81;106672;1302;138140;-46
2022/10/08 10:47:26;;;;;;;6.80;2.20;;;;;;;16.02;55.96;100292.49;106922;1303;22979;-46
2022/10/08 10:49:59;;;;;;;6.50;2.50;;;;;;;16.06;56.74;100288.64;106676;1303;138515;-46
2022/10/08 10:52:44;;;;;;;9.80;2.30;;;;;;;16.10;56.94;100285.63;106787;1303;22728;-46
2022/10/08 10:55:30;;;;;;;5.30;2.20;;;;;;;16.12;56.39;100277.98;106696;1292;138104;-47
2022/10/08 10:58:35;;;;;;;7.10;2.10;;;;;;;16.15;56.81;100280.67;106772;1303;22236;-47
2022/10/08 11:01:34;;;;;;;5.70;2.50;;;;;;;16.17;56.47;100279.51;106883;1303;22210;-46
2022/10/08 11:04:25;;;;;;;3.80;2.00;;;;;;;16.18;56.82;100270.43;106652;1297;22342;-47
2022/10/08 11:07:02;;;;;;;131.80;94.40;;;;;;;16.23;56.60;100267.13;106919;1300;22184;-45
2022/10/08 11:09:46;;;;;;;35.30;21.30;;;;;;;16.27;56.53;100262.80;106705;1303;139645;-46
2022/10/08 11:12:41;;;;;;;17.20;5.50;;;;;;;16.32;57.71;100257.93;106760;1303;22132;-47
2022/10/08 11:15:26;;;;;;;14.20;8.30;;;;;;;16.38;58.33;100253.09;106674;1303;138473;-47
2022/10/08 11:18:16;;;;;;;6.60;3.90;;;;;;;16.44;58.11;100248.30;106817;1300;22133;-47
2022/10/08 11:21:02;;;;;;;16.30;4.60;;;;;;;16.48;58.20;100241.77;106662;1302;138248;-47
2022/10/08 11:23:32;;;;;;;8.00;4.50;;;;;;;16.50;58.28;100237.31;106795;1302;23334;-47
2022/10/08 11:26:04;;;;;;;12.80;6.40;;;;;;;16.53;58.23;100238.02;106733;1303;138080;-47
2022/10/08 11:29:33;;;;;;;9.50;3.70;;;;;;;16.52;57.63;100232.70;106736;1300;22164;-47
2022/10/08 11:32:00;;;;;;;10.50;4.40;;;;;;;16.50;57.40;100225.10;106315;1306;138453;-47
2022/10/08 11:34:28;;;;;;;10.10;4.50;;;;;;;16.48;57.81;100216.14;106244;1308;22207;-47
2022/10/08 11:37:13;;;;;;;82.60;50.20;;;;;;;16.47;58.01;100214.38;106378;1306;23441;-45
2022/10/08 11:40:20;;;;;;;13.70;7.20;;;;;;;16.46;58.39;100214.81;106372;1307;22267;-47
2022/10/08 11:42:56;;;;;;;11.30;5.00;;;;;;;16.48;57.85;100218.66;105579;1316;23021;-48